Time;durP1;ratioP1;P1;durP2;ratioP2;P2;SDS_P1;SDS_P2;PMS_P1;PMS_P2;Temp;Humidity;BMP_temperature;BMP_pressure;BME280_temperature;BME280_humidity;BME280_pressure;Samples;Min_cycle;Max_cycle;Signal;HPM_P1;HPM_P2
2022/07/23 00:00:44;;;;;;;13.77;12.23;;;;;;;27.38;46.31;98964.88;5087158;28;20052;-71
2022/07/23 00:03:13;;;;;;;10.00;8.63;;;;;;;27.39;46.09;98961.94;5087301;28;20044;-70
2022/07/23 00:05:40;;;;;;;8.60;7.68;;;;;;;27.12;45.92;98920.16;5087282;28;20102;-71
2022/07/23 00:08:08;;;;;;;9.40;7.70;;;;;;;27.23;45.61;98945.13;5087355;28;20102;-71
2022/07/23 00:10:35;;;;;;;10.10;7.80;;;;;;;27.33;46.34;98959.19;5086936;28;20108;-70
2022/07/23 00:13:03;;;;;;;8.20;7.07;;;;;;;27.20;45.78;98940.91;5086807;28;20052;-70
2022/07/23 00:15:30;;;;;;;10.65;8.13;;;;;;;27.33;45.74;98964.66;5086938;28;20064;-70
2022/07/23 00:17:58;;;;;;;8.95;7.72;;;;;;;27.31;45.68;98959.41;5086022;28;20102;-70
2022/07/23 00:20:27;;;;;;;8.18;6.95;;;;;;;27.30;45.47;98962.31;5086784;28;20106;-71
2022/07/23 00:22:56;;;;;;;10.55;6.53;;;;;;;27.18;45.51;98946.53;5086874;28;20047;-70
2022/07/23 00:25:26;;;;;;;12.18;9.80;;;;;;;27.33;44.92;98970.09;5086644;28;20200;-70
2022/07/23 00:27:53;;;;;;;19.33;17.42;;;;;;;27.27;45.18;98968.16;5069140;28;20074;-71
2022/07/23 00:30:20;;;;;;;23.77;20.80;;;;;;;27.27;45.68;98966.28;5086533;28;20189;-71
2022/07/23 00:32:48;;;;;;;18.73;16.50;;;;;;;27.27;45.07;98979.88;5086417;28;20052;-71
2022/07/23 00:35:16;;;;;;;14.02;11.60;;;;;;;27.26;45.50;98971.94;5086540;28;20060;-70
2022/07/23 00:37:45;;;;;;;12.60;11.05;;;;;;;27.25;45.51;98975.69;5086582;28;20297;-70
2022/07/23 00:40:13;;;;;;;15.15;12.55;;;;;;;27.20;45.14;98965.38;5086516;28;20056;-71
2022/07/23 00:42:40;;;;;;;23.33;20.90;;;;;;;27.22;45.17;98974.19;5086385;28;20258;-71
2022/07/23 00:45:08;;;;;;;16.92;15.13;;;;;;;27.21;44.75;98977.94;5086165;28;20056;-70
2022/07/23 00:47:36;;;;;;;13.80;12.32;;;;;;;27.21;45.01;98969.78;5086411;28;20263;-70
2022/07/23 00:50:04;;;;;;;14.90;11.48;;;;;;;27.09;44.51;98961.34;5086559;28;20185;-71
2022/07/23 00:52:33;;;;;;;13.75;9.93;;;;;;;27.21;44.69;98979.81;5086002;28;20098;-71
2022/07/23 00:55:02;;;;;;;11.35;8.15;;;;;;;26.85;44.56;98926.47;5068606;28;20056;-70
2022/07/23 00:57:30;;;;;;;8.75;7.88;;;;;;;27.19;44.97;98980.03;5085990;28;20173;-71
2022/07/23 00:59:57;;;;;;;9.13;7.55;;;;;;;27.05;45.41;98957.34;5086046;28;20114;-70
2022/07/23 01:02:25;;;;;;;8.52;6.78;;;;;;;26.49;44.69;98862.22;5084876;28;20106;-70
2022/07/23 01:04:52;;;;;;;9.32;7.05;;;;;;;27.15;45.35;98970.59;5085626;28;20106;-71
2022/07/23 16:41:25;;;;;;;4.88;3.75;;;;;;;29.87;34.86;98896.06;5165560;27;20122;-73
2022/07/23 16:43:53;;;;;;;4.65;4.22;;;;;;;29.92;34.40;98899.81;5163859;27;20054;-72
2022/07/23 16:46:21;;;;;;;4.95;4.22;;;;;;;29.97;34.57;98890.97;5164297;27;20061;-72
2022/07/23 16:48:48;;;;;;;6.00;4.38;;;;;;;30.04;34.63;98889.03;5163950;27;20055;-72
2022/07/23 16:51:15;;;;;;;6.20;3.80;;;;;;;30.08;34.43;98893.00;5163845;27;20056;-73
2022/07/23 16:53:43;;;;;;;4.47;3.72;;;;;;;30.03;34.55;98885.47;5163701;27;20081;-73
2022/07/23 16:56:10;;;;;;;4.90;4.30;;;;;;;30.06;35.19;98869.69;5163811;27;20051;-74
2022/07/23 16:58:39;;;;;;;5.50;4.68;;;;;;;30.24;34.98;98891.66;5163840;27;20211;-73
2022/07/23 17:01:06;;;;;;;5.68;4.63;;;;;;;29.69;34.16;98790.31;5164177;27;20042;-72
2022/07/23 17:03:34;;;;;;;4.65;3.85;;;;;;;29.96;34.24;98856.50;5164097;27;20046;-72
2022/07/23 17:06:01;;;;;;;4.70;3.78;;;;;;;30.26;34.63;98890.38;5164161;27;20180;-73
2022/07/23 17:08:29;;;;;;;4.40;3.95;;;;;;;30.28;34.71;98899.19;5163694;27;20055;-72
2022/07/23 17:10:56;;;;;;;5.07;4.15;;;;;;;30.26;34.02;98890.38;5163637;27;20054;-73
2022/07/23 17:13:24;;;;;;;5.15;4.45;;;;;;;30.20;34.59;98890.41;5163358;27;20055;-72
2022/07/23 17:15:54;;;;;;;6.90;5.00;;;;;;;30.21;34.34;98892.13;5163513;27;20080;-72
2022/07/23 17:18:21;;;;;;;6.00;4.75;;;;;;;30.13;34.92;98878.66;5163629;27;20067;-73
2022/07/23 17:20:49;;;;;;;7.20;4.65;;;;;;;30.23;34.78;98901.75;5163346;27;20062;-73
2022/07/23 17:23:16;;;;;;;4.78;4.20;;;;;;;30.21;35.33;98903.88;5163421;27;20066;-73
2022/07/23 17:25:44;;;;;;;4.55;3.97;;;;;;;30.14;35.55;98914.00;5145847;27;20046;-73
2022/07/23 17:28:11;;;;;;;6.47;3.97;;;;;;;29.94;34.83;98888.69;5163374;27;20054;-72
2022/07/23 17:30:38;;;;;;;5.82;4.20;;;;;;;30.09;35.61;98919.25;5163193;27;20355;-74
2022/07/23 17:33:08;;;;;;;6.70;4.38;;;;;;;30.04;35.70;98902.69;5163124;27;20055;-72
2022/07/23 17:35:36;;;;;;;4.55;4.10;;;;;;;30.15;36.10;98925.75;5162828;27;20111;-73
2022/07/23 17:38:04;;;;;;;8.80;5.95;;;;;;;29.82;35.76;98888.53;5163244;27;20303;-73
2022/07/23 17:40:31;;;;;;;6.53;5.82;;;;;;;30.12;36.05;98942.56;5162998;27;20055;-74
2022/07/23 17:42:59;;;;;;;8.32;6.03;;;;;;;30.09;36.48;98937.53;5163136;27;20176;-73
2022/07/23 17:45:27;;;;;;;6.38;5.78;;;;;;;29.71;36.15;98884.63;5163190;27;20054;-72
2022/07/23 17:47:54;;;;;;;7.30;5.43;;;;;;;30.06;36.46;98933.34;5163074;27;20310;-74
2022/07/23 17:50:23;;;;;;;4.97;4.32;;;;;;;30.07;36.15;98947.84;5163202;27;20047;-73
2022/07/23 17:52:53;;;;;;;5.38;4.43;;;;;;;29.93;36.63;98927.97;5148541;27;20055;-74
2022/07/23 17:55:22;;;;;;;6.25;5.65;;;;;;;29.99;36.52;98947.06;5148892;27;20069;-74
2022/07/23 17:57:49;;;;;;;6.70;5.20;;;;;;;29.55;36.53;98873.34;5149462;27;20055;-75
2022/07/23 18:00:20;;;;;;;6.32;5.72;;;;;;;30.03;36.54;98940.09;5149090;27;20062;-74
2022/07/23 18:02:48;;;;;;;6.50;5.90;;;;;;;30.01;36.97;98944.09;5149031;27;20066;-74
2022/07/23 18:05:16;;;;;;;6.30;5.70;;;;;;;30.02;37.04;98951.25;5149341;27;20291;-73
2022/07/23 18:07:45;;;;;;;5.20;4.70;;;;;;;29.94;36.92;98952.34;5149005;27;20051;-73
2022/07/23 18:10:13;;;;;;;5.35;4.85;;;;;;;29.94;37.11;98946.88;5149157;27;20051;-74
2022/07/23 18:12:41;;;;;;;4.95;4.45;;;;;;;29.91;37.14;98949.22;5148962;27;20042;-73
2022/07/23 18:15:09;;;;;;;5.60;5.00;;;;;;;29.92;36.96;98950.88;5148653;27;20172;-73
2022/07/23 18:17:37;;;;;;;7.70;7.00;;;;;;;29.79;36.92;98934.56;5148463;27;20050;-74
2022/07/23 18:20:07;;;;;;;6.60;6.00;;;;;;;29.73;36.88;98944.47;5148617;27;20047;-74
2022/07/23 18:22:34;;;;;;;9.18;6.18;;;;;;;29.85;37.31;98964.59;5148649;27;20069;-74
2022/07/23 18:25:04;;;;;;;7.07;5.60;;;;;;;29.86;37.36;98968.16;5148369;27;20039;-73
2022/07/23 18:27:32;;;;;;;5.10;4.60;;;;;;;29.76;37.48;98970.50;5148304;27;20055;-73
2022/07/23 18:29:59;;;;;;;5.65;4.78;;;;;;;29.37;37.52;98913.09;5148437;27;20066;-74
2022/07/23 18:32:27;;;;;;;6.40;5.80;;;;;;;29.76;37.36;98970.50;5130476;27;20039;-74
2022/07/23 18:34:55;;;;;;;6.90;6.20;;;;;;;29.78;37.54;98980.16;5148147;27;20055;-74
2022/07/23 18:37:23;;;;;;;7.30;6.60;;;;;;;29.77;37.82;98974.91;5147964;27;20223;-74
2022/07/23 18:39:50;;;;;;;6.05;5.45;;;;;;;29.41;37.38;98938.06;5148239;27;20059;-74
2022/07/23 18:42:19;;;;;;;5.80;5.15;;;;;;;29.71;37.39;98980.19;5148242;27;20273;-73
2022/07/23 18:44:46;;;;;;;8.57;5.82;;;;;;;29.73;38.10;98973.69;5148197;27;20055;-74
2022/07/23 18:47:13;;;;;;;5.82;5.22;;;;;;;29.73;38.14;98985.44;5147756;27;20132;-74
2022/07/23 18:49:41;;;;;;;6.95;5.43;;;;;;;29.70;38.15;98981.25;5148103;27;20051;-73
2022/07/23 18:52:08;;;;;;;6.97;6.28;;;;;;;29.70;38.31;98983.97;5147713;27;20055;-74
2022/07/23 18:54:35;;;;;;;7.60;6.30;;;;;;;29.71;38.32;98988.38;5148334;27;20055;-74
2022/07/23 18:57:03;;;;;;;7.70;6.82;;;;;;;28.92;37.89;98857.63;5148120;27;20054;-74
2022/07/23 18:59:32;;;;;;;7.70;6.90;;;;;;;29.21;38.25;98915.47;5148097;27;20126;-74
2022/07/23 19:01:59;;;;;;;8.55;6.13;;;;;;;29.64;38.32;99003.97;5147674;27;20062;-74
2022/07/23 19:04:26;;;;;;;5.43;4.93;;;;;;;29.61;37.81;99000.81;5147087;27;20319;-73
2022/07/23 19:06:54;;;;;;;6.72;4.93;;;;;;;29.69;38.07;99022.44;5147787;27;20063;-73
2022/07/23 19:09:21;;;;;;;6.30;5.70;;;;;;;29.64;37.96;99017.63;5147466;27;20059;-74
2022/07/23 19:11:49;;;;;;;6.65;6.00;;;;;;;29.05;38.12;98923.06;5147273;27;20050;-73
2022/07/23 19:14:16;;;;;;;6.95;6.25;;;;;;;29.15;38.49;98940.91;5147607;27;20108;-73
2022/07/23 19:16:45;;;;;;;6.47;5.88;;;;;;;29.54;38.54;99006.28;5147796;27;20066;-73
2022/07/23 19:19:12;;;;;;;8.02;5.45;;;;;;;29.53;38.44;99007.34;5147732;27;20059;-72
2022/07/23 19:21:39;;;;;;;5.88;4.95;;;;;;;29.49;38.43;99011.53;5147706;27;20062;-71
2022/07/23 19:24:08;;;;;;;6.93;5.28;;;;;;;29.47;38.65;99018.28;5147294;27;20055;-72
2022/07/23 19:26:35;;;;;;;4.45;4.05;;;;;;;29.44;38.83;99022.25;5147668;27;20252;-73
2022/07/23 19:29:03;;;;;;;5.00;4.50;;;;;;;29.44;38.63;99021.44;5147478;27;20100;-72
2022/07/23 19:31:30;;;;;;;6.20;5.32;;;;;;;29.43;39.07;99017.84;5147430;27;20054;-73
2022/07/23 19:33:58;;;;;;;6.82;5.85;;;;;;;29.34;39.18;99024.59;5147295;27;20058;-72
2022/07/23 19:36:26;;;;;;;5.90;4.78;;;;;;;29.34;38.93;99019.16;5147530;27;20035;-73
2022/07/23 19:38:53;;;;;;;6.03;5.45;;;;;;;29.18;39.01;99006.78;5147356;27;20061;-72
2022/07/23 19:41:20;;;;;;;6.57;5.07;;;;;;;29.31;39.27;99023.13;5147180;27;20047;-73
2022/07/23 19:43:48;;;;;;;6.50;5.47;;;;;;;29.21;39.47;99028.19;5147304;27;20260;-73
2022/07/23 19:46:15;;;;;;;6.32;5.18;;;;;;;29.11;39.30;99030.53;5147922;27;20055;-74
2022/07/23 19:48:42;;;;;;;5.93;4.78;;;;;;;28.80;39.53;99012.03;5146759;27;20272;-71
2022/07/23 19:51:11;;;;;;;5.82;5.22;;;;;;;28.84;39.22;99001.56;5147299;27;20115;-72
2022/07/23 19:53:38;;;;;;;5.30;4.80;;;;;;;28.55;39.40;98953.75;5146929;27;20367;-72
2022/07/23 19:56:06;;;;;;;6.90;4.70;;;;;;;29.01;39.48;99033.69;5147217;27;20103;-72
2022/07/23 19:58:33;;;;;;;6.10;5.28;;;;;;;28.88;39.54;99028.19;5146895;27;20099;-75
2022/07/23 20:01:00;;;;;;;4.97;4.47;;;;;;;28.88;39.39;99039.09;5146523;27;20104;-75
2022/07/23 20:03:28;;;;;;;9.18;5.28;;;;;;;28.79;39.80;99036.78;5147071;27;20059;-71
2022/07/23 20:05:55;;;;;;;7.70;6.03;;;;;;;28.76;39.79;99047.06;5146821;27;20054;-71
2022/07/23 20:08:24;;;;;;;5.43;4.40;;;;;;;28.73;38.93;99055.66;5147051;27;20314;-71
2022/07/23 20:10:51;;;;;;;5.38;4.82;;;;;;;28.72;39.54;99050.44;5146884;27;20055;-72
2022/07/23 20:13:18;;;;;;;6.03;4.57;;;;;;;28.54;39.27;99042.03;5146644;27;20059;-72
2022/07/23 20:15:47;;;;;;;8.30;6.53;;;;;;;28.55;38.67;99065.50;5146667;27;20099;-73
2022/07/23 20:18:15;;;;;;;5.78;4.90;;;;;;;28.23;38.99;99021.59;5146914;27;20386;-72
2022/07/23 20:20:42;;;;;;;5.45;4.22;;;;;;;28.46;38.56;99069.47;5146152;27;20058;-71
2022/07/23 20:23:09;;;;;;;5.35;4.38;;;;;;;28.31;39.02;99075.06;5146356;27;20108;-73
2022/07/23 20:25:40;;;;;;;5.43;4.93;;;;;;;28.19;38.82;99060.34;5146542;27;20248;-71
2022/07/23 20:28:09;;;;;;;5.80;4.85;;;;;;;28.15;39.69;99064.53;5146702;27;20055;-72
2022/07/23 20:30:36;;;;;;;5.78;4.35;;;;;;;27.95;40.11;99059.00;5146591;27;20323;-71
2022/07/23 20:33:04;;;;;;;6.13;4.55;;;;;;;27.96;39.89;99104.28;5146416;27;20058;-71
2022/07/23 20:35:31;;;;;;;5.03;4.18;;;;;;;27.93;39.91;99102.78;5146294;27;20054;-72
2022/07/23 20:37:58;;;;;;;4.80;4.10;;;;;;;27.93;40.11;99121.84;5146575;27;20059;-71
2022/07/23 20:40:25;;;;;;;5.88;3.90;;;;;;;27.92;40.90;99122.06;5146287;27;20055;-72
2022/07/23 20:42:54;;;;;;;4.70;4.20;;;;;;;27.85;40.46;99134.78;5146218;27;20143;-72
2022/07/23 20:45:21;;;;;;;4.85;3.97;;;;;;;27.86;40.06;99147.38;5146400;27;20051;-72
2022/07/23 20:47:49;;;;;;;4.75;4.25;;;;;;;27.82;40.10;99152.34;5146404;27;20311;-71
2022/07/23 20:50:16;;;;;;;4.65;3.92;;;;;;;27.75;40.42;99152.31;5146560;27;20245;-71
2022/07/23 20:52:43;;;;;;;4.70;4.07;;;;;;;27.81;41.33;99158.81;5146467;27;20196;-72
2022/07/23 20:55:11;;;;;;;7.88;7.05;;;;;;;27.83;40.89;99177.69;5146099;27;20104;-72
2022/07/23 20:57:39;;;;;;;8.18;7.30;;;;;;;27.78;40.59;99170.13;5146003;27;20107;-72
2022/07/23 21:00:10;;;;;;;6.47;5.88;;;;;;;27.73;41.09;99165.28;5146556;27;20111;-73
2022/07/23 21:02:38;;;;;;;6.32;4.88;;;;;;;27.67;40.53;99174.25;5145862;27;20051;-72
2022/07/23 21:05:06;;;;;;;6.80;6.10;;;;;;;27.61;41.07;99166.03;5146294;27;20104;-73
2022/07/23 21:07:33;;;;;;;10.60;9.20;;;;;;;27.55;40.76;99159.47;5146478;27;20055;-73
2022/07/23 21:10:00;;;;;;;11.88;8.32;;;;;;;27.38;41.32;99128.13;5146671;27;20303;-71
2022/07/23 21:12:27;;;;;;;6.10;5.30;;;;;;;27.63;41.01;99170.22;5145924;28;20249;-72
2022/07/23 21:14:56;;;;;;;5.50;4.93;;;;;;;27.64;40.81;99190.13;5146412;27;20107;-71
2022/07/23 21:17:24;;;;;;;6.47;5.00;;;;;;;27.34;41.03;99162.22;5146315;27;20054;-72
2022/07/23 21:19:51;;;;;;;17.15;15.35;;;;;;;27.55;40.63;99203.00;5146379;27;20047;-72
2022/07/23 21:22:19;;;;;;;10.85;9.00;;;;;;;27.17;41.04;99148.88;5146205;28;20193;-73
2022/07/23 21:24:46;;;;;;;6.63;5.47;;;;;;;27.25;41.13;99161.53;5146132;27;20055;-72
2022/07/23 21:27:15;;;;;;;6.03;5.07;;;;;;;27.49;41.61;99214.69;5148529;27;20047;-72
2022/07/23 21:29:42;;;;;;;6.35;4.75;;;;;;;27.49;41.77;99212.81;5150128;27;20055;-72
2022/07/23 21:32:10;;;;;;;23.50;9.32;;;;;;;27.46;41.49;99220.53;5149697;27;20104;-73
2022/07/23 21:34:38;;;;;;;13.05;8.80;;;;;;;27.34;41.86;99200.31;5149769;27;20112;-72
2022/07/23 21:37:06;;;;;;;5.85;5.13;;;;;;;27.37;41.35;99224.41;5149982;27;20322;-73
2022/07/23 21:39:33;;;;;;;5.45;4.65;;;;;;;27.35;41.49;99219.16;5149567;27;20055;-73
2022/07/23 21:42:00;;;;;;;5.20;4.70;;;;;;;27.30;41.19;99223.50;5149652;27;20051;-72
2022/07/23 21:44:28;;;;;;;5.50;5.00;;;;;;;27.26;41.72;99227.66;5149496;27;20081;-72
2022/07/23 21:46:55;;;;;;;5.22;3.97;;;;;;;27.23;41.66;99225.34;5149608;27;20099;-72
2022/07/23 21:49:22;;;;;;;6.13;5.13;;;;;;;27.21;41.58;99225.50;5149770;27;20055;-73
2022/07/23 21:51:51;;;;;;;5.95;5.03;;;;;;;27.10;42.01;99228.72;5149646;27;20210;-72
2022/07/23 21:54:18;;;;;;;5.18;4.68;;;;;;;27.07;41.73;99232.69;5149317;27;20152;-72
2022/07/23 21:56:46;;;;;;;5.85;4.80;;;;;;;27.01;42.06;99210.84;5149077;27;20334;-73
2022/07/23 21:59:15;;;;;;;5.72;4.55;;;;;;;27.08;42.04;99217.19;5149204;27;20051;-72
2022/07/23 22:01:42;;;;;;;5.82;5.05;;;;;;;26.90;41.94;99190.44;5148767;27;20112;-72
2022/07/23 22:04:10;;;;;;;5.15;4.40;;;;;;;26.98;42.00;99225.69;5148907;27;20055;-73
2022/07/23 22:06:37;;;;;;;5.85;4.72;;;;;;;27.08;42.60;99250.69;5149326;27;20059;-73
2022/07/23 22:09:05;;;;;;;5.30;4.38;;;;;;;27.05;42.44;99251.06;5149226;27;20111;-72
2022/07/23 22:11:33;;;;;;;5.72;4.30;;;;;;;26.98;43.22;99263.75;5149104;27;20059;-72
2022/07/23 22:14:00;;;;;;;5.20;4.22;;;;;;;26.94;43.51;99254.28;5148453;27;20104;-71
2022/07/23 22:16:27;;;;;;;7.00;4.97;;;;;;;26.73;43.03;99229.78;5148484;27;20059;-72
2022/07/23 22:18:55;;;;;;;5.43;4.88;;;;;;;27.00;43.14;99277.16;5148266;27;20375;-72
2022/07/23 22:21:22;;;;;;;6.40;4.68;;;;;;;26.99;43.10;99279.03;5148517;27;20054;-71
2022/07/23 22:23:49;;;;;;;5.70;4.68;;;;;;;26.93;43.26;99281.69;5147803;27;20058;-71
2022/07/23 22:26:18;;;;;;;6.28;4.30;;;;;;;26.86;43.01;99287.88;5148451;27;20038;-71
2022/07/23 22:28:45;;;;;;;5.30;4.38;;;;;;;26.84;43.36;99286.38;5148273;27;20059;-71
2022/07/23 22:31:12;;;;;;;6.00;4.78;;;;;;;26.83;42.86;99271.94;5148383;27;20192;-71
2022/07/23 22:33:39;;;;;;;4.72;4.22;;;;;;;26.91;42.97;99287.31;5148010;27;20057;-71
2022/07/23 22:36:07;;;;;;;5.20;4.70;;;;;;;26.54;42.78;99240.19;5148058;27;20167;-71
2022/07/23 22:38:35;;;;;;;6.18;4.47;;;;;;;26.70;42.75;99274.50;5147695;27;20100;-72
2022/07/23 22:41:03;;;;;;;5.40;4.47;;;;;;;26.86;43.08;99292.47;5147480;27;20062;-71
2022/07/23 22:43:31;;;;;;;5.32;4.60;;;;;;;26.77;42.90;99261.00;5147872;27;20108;-72
2022/07/23 22:45:58;;;;;;;5.85;4.45;;;;;;;26.86;42.73;99289.75;5147669;27;20051;-71
2022/07/23 22:48:26;;;;;;;4.95;4.45;;;;;;;26.82;42.94;99299.31;5147345;27;20055;-72
2022/07/23 22:50:54;;;;;;;5.18;4.53;;;;;;;26.07;42.99;99180.00;5146986;27;20043;-72
2022/07/23 22:53:21;;;;;;;6.53;4.63;;;;;;;26.78;42.59;99304.31;5147545;27;20375;-71
2022/07/23 22:55:48;;;;;;;5.40;4.45;;;;;;;26.28;42.60;99215.41;5147811;27;20267;-71
2022/07/23 22:58:15;;;;;;;5.00;4.30;;;;;;;26.67;43.11;99298.50;5147983;27;20039;-72
2022/07/23 23:00:44;;;;;;;6.30;4.80;;;;;;;26.69;43.25;99300.00;5147799;27;20055;-72
2022/07/23 23:03:11;;;;;;;6.15;4.03;;;;;;;26.65;43.25;99298.69;5147366;27;20134;-73
2022/07/23 23:05:38;;;;;;;4.85;4.03;;;;;;;26.60;42.91;99305.69;5147612;27;20059;-72
2022/07/23 23:08:05;;;;;;;6.10;4.10;;;;;;;26.44;43.02;99291.28;5146529;27;20069;-72
2022/07/23 23:10:33;;;;;;;5.35;4.07;;;;;;;26.58;43.13;99292.28;5147714;27;20055;-72
2022/07/23 23:13:00;;;;;;;5.82;4.50;;;;;;;26.54;43.23;99299.13;5147181;27;20175;-72
2022/07/23 23:15:27;;;;;;;5.47;4.15;;;;;;;26.60;43.05;99297.53;5147185;27;20054;-73
2022/07/23 23:17:56;;;;;;;7.13;4.50;;;;;;;26.54;42.96;99282.84;5147382;27;20063;-72
2022/07/23 23:20:23;;;;;;;5.80;4.90;;;;;;;26.62;43.20;99295.50;5147389;27;20264;-72
2022/07/23 23:22:51;;;;;;;5.05;3.95;;;;;;;26.62;42.98;99300.94;5147030;27;20055;-72
2022/07/23 23:25:18;;;;;;;5.03;3.95;;;;;;;26.58;43.17;99295.00;5147078;27;20107;-72
2022/07/23 23:27:45;;;;;;;5.30;4.35;;;;;;;26.58;43.24;99286.84;5146875;27;20104;-72
2022/07/23 23:30:13;;;;;;;5.18;4.57;;;;;;;26.50;43.40;99287.81;5147210;27;20171;-73
2022/07/23 23:32:40;;;;;;;7.05;5.88;;;;;;;26.46;43.50;99291.09;5146985;27;20091;-73
2022/07/23 23:35:09;;;;;;;6.13;4.60;;;;;;;26.41;43.34;99269.06;5146972;27;20058;-71
2022/07/23 23:37:36;;;;;;;5.40;4.90;;;;;;;26.51;43.55;99283.22;5147092;27;20063;-72
2022/07/23 23:40:04;;;;;;;6.22;4.97;;;;;;;26.51;43.33;99275.06;5146765;27;20059;-71
2022/07/23 23:42:32;;;;;;;5.97;5.15;;;;;;;26.52;43.66;99280.31;5147083;27;20051;-72
2022/07/23 23:44:59;;;;;;;6.72;5.18;;;;;;;26.46;44.00;99281.06;5147324;27;20055;-71
2022/07/23 23:47:26;;;;;;;6.18;4.28;;;;;;;25.95;44.16;99214.91;5146089;27;20043;-72
2022/07/23 23:49:53;;;;;;;5.13;4.60;;;;;;;26.45;43.94;99268.50;5146622;27;20184;-72
2022/07/23 23:52:22;;;;;;;5.85;5.05;;;;;;;26.46;43.99;99275.63;5146876;27;20055;-72
2022/07/23 23:54:49;;;;;;;5.35;4.40;;;;;;;26.49;43.99;99271.69;5147145;27;20058;-72
2022/07/23 23:57:16;;;;;;;5.60;4.78;;;;;;;26.49;43.98;99275.25;5146843;27;20108;-71
2022/07/23 23:59:43;;;;;;;5.90;3.95;;;;;;;26.36;44.29;99253.34;5147074;27;20055;-73
